createdAt,value
2019-05-23T00:02:15.046Z,99852.84
2019-05-23T00:04:48.182Z,99866.27
2019-05-23T00:07:18.617Z,99858.81
2019-05-23T00:09:47.040Z,99862.13
2019-05-23T00:12:32.799Z,99861.95
2019-05-23T00:15:08.607Z,99870.91
2019-05-23T00:17:36.639Z,99869.92
2019-05-23T00:20:06.998Z,99862.80
2019-05-23T00:22:35.485Z,99868.92
2019-05-23T00:25:04.500Z,99873.90
2019-05-23T00:27:33.776Z,99873.09
2019-05-23T00:30:04.380Z,99878.40
2019-05-23T00:32:40.426Z,99878.40
2019-05-23T00:35:09.745Z,99876.89
2019-05-23T00:37:40.259Z,99884.03
2019-05-23T00:40:10.049Z,99878.22
2019-05-23T00:42:37.941Z,99882.38
2019-05-23T00:45:06.676Z,99886.03
2019-05-23T00:47:34.405Z,99880.06
2019-05-23T00:50:05.715Z,99884.70
2019-05-23T00:52:33.419Z,99884.70
2019-05-23T00:55:02.465Z,99877.41
2019-05-23T00:57:32.921Z,99877.41
2019-05-23T01:00:01.025Z,99881.72
2019-05-23T01:02:30.021Z,99881.72
2019-05-23T01:04:58.372Z,99881.72
2019-05-23T01:07:26.375Z,99883.05
2019-05-23T01:09:56.211Z,99894.47
2019-05-23T01:12:26.758Z,99894.47
2019-05-23T01:14:55.253Z,99886.84
2019-05-23T01:17:25.099Z,99886.84
2019-05-23T01:19:54.002Z,99892.16
2019-05-23T01:22:22.365Z,99895.32
2019-05-23T01:24:54.401Z,99895.32
2019-05-23T01:27:22.935Z,99884.19
2019-05-23T01:29:51.908Z,99884.19
2019-05-23T01:32:39.432Z,99898.45
2019-05-23T01:35:10.006Z,99889.67
2019-05-23T01:37:37.944Z,99889.67
2019-05-23T01:40:06.615Z,99904.27
2019-05-23T01:42:34.646Z,99899.11
2019-05-23T01:45:02.850Z,99900.77
2019-05-23T01:47:31.862Z,99897.62
2019-05-23T01:50:00.830Z,99897.62
2019-05-23T01:52:29.729Z,99905.92
2019-05-23T01:54:58.655Z,99901.09
2019-05-23T01:57:26.537Z,99899.44
2019-05-23T02:00:09.030Z,99909.72
2019-05-23T02:02:26.846Z,99912.54
2019-05-23T02:04:55.939Z,99901.75
2019-05-23T02:07:24.405Z,99901.75
2019-05-23T02:09:53.089Z,99905.56
2019-05-23T02:12:21.387Z,99905.56
2019-05-23T02:14:49.355Z,99898.94
2019-05-23T02:17:17.764Z,99912.20
2019-05-23T02:19:47.654Z,99901.59
2019-05-23T02:22:15.686Z,99917.31
2019-05-23T02:24:44.228Z,99903.91
2019-05-23T02:27:12.246Z,99903.91
2019-05-23T02:29:41.475Z,99920.14
2019-05-23T02:32:10.794Z,99920.14
2019-05-23T02:34:38.758Z,99918.45
2019-05-23T02:37:13.476Z,99925.74
2019-05-23T02:39:56.697Z,99924.08
2019-05-23T02:42:40.179Z,99922.42
2019-05-23T02:45:12.309Z,99921.61
2019-05-23T02:47:43.728Z,99921.09
2019-05-23T02:50:19.900Z,99920.59
2019-05-23T02:52:53.663Z,99920.59
2019-05-23T02:55:27.538Z,99930.02
2019-05-23T02:58:00.306Z,99937.00
2019-05-23T03:00:55.701Z,99934.33
2019-05-23T03:03:28.721Z,99934.98
2019-05-23T03:06:00.406Z,99933.66
2019-05-23T03:08:30.870Z,99940.97
2019-05-23T03:11:19.429Z,99947.11
2019-05-23T03:13:48.884Z,99938.30
2019-05-23T03:16:23.900Z,99939.63
2019-05-23T03:18:58.174Z,99946.11
2019-05-23T03:21:25.953Z,99943.95
2019-05-23T03:23:55.502Z,99952.42
2019-05-23T03:26:54.965Z,99954.20
2019-05-23T03:29:23.139Z,99948.41
2019-05-23T03:32:00.715Z,99948.08
2019-05-23T03:34:33.154Z,99941.78
2019-05-23T03:37:01.194Z,99949.56
2019-05-23T03:39:29.053Z,99950.55
2019-05-23T03:41:56.889Z,99940.92
2019-05-23T03:44:26.576Z,99954.20
2019-05-23T03:46:56.615Z,99954.20
2019-05-23T03:49:26.814Z,99955.52
2019-05-23T03:51:55.114Z,99949.88
2019-05-23T03:54:25.291Z,99954.18
2019-05-23T03:56:53.516Z,99953.19
2019-05-23T03:59:24.880Z,99953.19
2019-05-23T04:01:54.474Z,99955.03
2019-05-23T04:04:23.814Z,99950.52
2019-05-23T04:06:52.165Z,99961.11
2019-05-23T04:09:20.343Z,99961.11
2019-05-23T04:11:48.260Z,99960.45
2019-05-23T04:14:17.254Z,99955.67
2019-05-23T04:16:46.292Z,99957.47
2019-05-23T04:19:14.861Z,99964.29
2019-05-23T04:21:42.704Z,99962.10
2019-05-23T04:24:10.867Z,99962.77
2019-05-23T04:26:39.129Z,99969.58
2019-05-23T04:29:07.498Z,99959.72
2019-05-23T04:31:35.234Z,99972.32
2019-05-23T04:34:03.796Z,99974.34
2019-05-23T04:36:31.597Z,99971.72
2019-05-23T04:38:59.359Z,99980.52
2019-05-23T04:41:27.344Z,99983.97
2019-05-23T04:43:55.307Z,99981.98
2019-05-23T04:46:23.494Z,99973.70
2019-05-23T04:48:52.979Z,99980.00
2019-05-23T04:51:21.270Z,99985.97
2019-05-23T04:53:49.441Z,99985.97
2019-05-23T04:56:17.394Z,99987.55
2019-05-23T04:58:45.474Z,99988.06
2019-05-23T05:01:14.069Z,100001.84
2019-05-23T05:03:44.706Z,99994.50
2019-05-23T05:06:12.720Z,99994.50
2019-05-23T05:08:41.198Z,100006.16
2019-05-23T05:11:09.304Z,100007.01
2019-05-23T05:13:37.879Z,100002.86
2019-05-23T05:16:06.545Z,100008.09
2019-05-23T05:18:34.655Z,100008.09
2019-05-23T05:21:04.536Z,100015.39
2019-05-23T05:23:32.525Z,100015.39
2019-05-23T05:26:00.474Z,100018.09
2019-05-23T05:28:28.368Z,100000.86
2019-05-23T05:30:56.092Z,100022.41
2019-05-23T05:33:23.809Z,100028.23
2019-05-23T05:35:51.785Z,100031.05
2019-05-23T05:38:20.102Z,100030.37
2019-05-23T05:40:48.079Z,100038.86
2019-05-23T05:43:16.512Z,100046.48
2019-05-23T05:45:44.799Z,100041.34
2019-05-23T05:48:12.827Z,100041.34
2019-05-23T05:50:40.751Z,100050.94
2019-05-23T05:53:08.850Z,100049.95
2019-05-23T05:55:36.639Z,100056.59
2019-05-23T05:58:05.345Z,100056.59
2019-05-23T06:00:51.333Z,100057.77
2019-05-23T06:03:20.355Z,100059.25
2019-05-23T06:06:06.340Z,100070.53
2019-05-23T06:08:37.639Z,100074.34
2019-05-23T06:11:05.475Z,100081.47
2019-05-23T06:13:33.451Z,100084.64
2019-05-23T06:16:02.152Z,100079.45
2019-05-23T06:18:31.554Z,100084.10
2019-05-23T06:21:00.979Z,100082.46
2019-05-23T06:23:29.399Z,100083.45
2019-05-23T06:25:57.382Z,100089.60
2019-05-23T06:28:25.470Z,100101.03
2019-05-23T06:30:54.224Z,100094.08
2019-05-23T06:33:24.295Z,100096.39
2019-05-23T06:35:53.706Z,100099.05
2019-05-23T06:38:21.631Z,100096.91
2019-05-23T06:40:49.662Z,100085.77
2019-05-23T06:43:18.259Z,100100.03
2019-05-23T06:45:46.720Z,100092.05
2019-05-23T06:48:16.168Z,100109.99
2019-05-23T06:50:44.775Z,100109.99
2019-05-23T06:53:12.516Z,100114.84
2019-05-23T06:55:40.491Z,100114.30
2019-05-23T06:58:08.290Z,100114.30
2019-05-23T07:00:36.853Z,100125.45
2019-05-23T07:03:05.259Z,100132.22
2019-05-23T07:05:36.194Z,100129.23
2019-05-23T07:08:04.588Z,100132.42
2019-05-23T07:10:33.157Z,100131.26
2019-05-23T07:13:01.033Z,100130.27
2019-05-23T07:15:29.771Z,100125.81
2019-05-23T07:17:58.727Z,100128.31
2019-05-23T07:20:26.983Z,100128.48
2019-05-23T07:22:54.895Z,100128.48
2019-05-23T07:25:23.359Z,100126.65
2019-05-23T07:27:51.459Z,100119.97
2019-05-23T07:30:23.317Z,100118.45
2019-05-23T07:32:51.207Z,100118.45
2019-05-23T07:35:19.312Z,100131.72
2019-05-23T07:37:47.109Z,100136.20
2019-05-23T07:40:15.427Z,100137.86
2019-05-23T07:42:43.482Z,100148.13
2019-05-23T07:45:15.666Z,100151.77
2019-05-23T07:47:43.525Z,100141.02
2019-05-23T07:50:11.576Z,100135.36
2019-05-23T07:52:40.147Z,100146.41
2019-05-23T07:55:13.732Z,100150.08
2019-05-23T07:57:42.565Z,100147.42
2019-05-23T08:00:17.758Z,100156.40
2019-05-23T08:02:46.848Z,100160.23
2019-05-23T08:05:15.001Z,100158.09
2019-05-23T08:07:43.474Z,100141.14
2019-05-23T08:10:11.666Z,100154.79
2019-05-23T08:12:39.572Z,100154.79
2019-05-23T08:15:09.040Z,100165.70
2019-05-23T08:17:37.646Z,100155.95
2019-05-23T08:20:05.613Z,100163.73
2019-05-23T08:22:33.388Z,100159.28
2019-05-23T08:25:01.225Z,100172.53
2019-05-23T08:27:29.916Z,100180.19
2019-05-23T08:29:58.147Z,100180.19
2019-05-23T08:32:26.034Z,100171.38
2019-05-23T08:34:54.156Z,100179.36
2019-05-23T08:37:22.016Z,100181.51
2019-05-23T08:39:51.258Z,100176.69
2019-05-23T08:42:20.025Z,100177.31
2019-05-23T08:44:47.855Z,100177.31
2019-05-23T08:47:16.612Z,100169.05
2019-05-23T08:49:44.794Z,100175.27
2019-05-23T08:52:12.664Z,100175.27
2019-05-23T08:54:41.022Z,100176.36
2019-05-23T08:57:10.519Z,100183.98
2019-05-23T08:59:39.726Z,100185.25
2019-05-23T09:02:09.495Z,100179.18
2019-05-23T09:04:37.379Z,100186.44
2019-05-23T09:07:06.446Z,100186.44
2019-05-23T09:09:34.945Z,100181.30
2019-05-23T09:12:03.521Z,100178.82
2019-05-23T09:14:31.539Z,100185.16
2019-05-23T09:16:59.623Z,100185.16
2019-05-23T09:19:27.481Z,100198.45
2019-05-23T09:21:58.008Z,100199.57
2019-05-23T09:24:25.288Z,100199.57
2019-05-23T09:26:52.968Z,100194.22
2019-05-23T09:29:21.466Z,100202.74
2019-05-23T09:31:49.652Z,100196.98
2019-05-23T09:34:17.548Z,100196.98
2019-05-23T09:36:45.251Z,100203.14
2019-05-23T09:39:16.943Z,100203.61
2019-05-23T09:41:45.944Z,100210.57
2019-05-23T09:44:13.900Z,100212.48
2019-05-23T09:46:42.536Z,100208.31
2019-05-23T09:49:11.448Z,100214.14
2019-05-23T09:51:39.576Z,100216.35
2019-05-23T09:54:08.063Z,100216.35
2019-05-23T09:56:36.168Z,100220.05
2019-05-23T09:59:04.049Z,100215.90
2019-05-23T10:01:32.194Z,100228.69
2019-05-23T10:04:00.211Z,100228.69
2019-05-23T10:06:28.885Z,100229.89
2019-05-23T10:08:56.881Z,100229.89
2019-05-23T10:11:24.612Z,100223.20
2019-05-23T10:13:52.570Z,100231.16
2019-05-23T10:16:20.551Z,100238.05
2019-05-23T10:18:49.373Z,100238.05
2019-05-23T10:21:17.251Z,100233.50
2019-05-23T10:23:45.085Z,100233.50
2019-05-23T10:26:12.941Z,100236.78
2019-05-23T10:28:40.871Z,100232.73
2019-05-23T10:31:10.706Z,100237.08
2019-05-23T10:33:38.654Z,100237.08
2019-05-23T10:36:06.626Z,100237.80
2019-05-23T10:38:34.553Z,100237.02
2019-05-23T10:41:04.911Z,100236.53
2019-05-23T10:43:32.822Z,100236.53
2019-05-23T10:46:00.816Z,100240.17
2019-05-23T10:48:29.678Z,100243.50
2019-05-23T10:50:57.521Z,100237.68
2019-05-23T10:53:25.581Z,100236.56
2019-05-23T10:55:53.594Z,100238.20
2019-05-23T10:58:21.817Z,100238.20
2019-05-23T11:00:49.803Z,100232.05
2019-05-23T11:03:20.672Z,100237.25
2019-05-23T11:05:48.829Z,100237.25
2019-05-23T11:08:16.869Z,100228.77
2019-05-23T11:10:45.126Z,100228.77
2019-05-23T11:13:12.955Z,100226.10
2019-05-23T11:15:41.266Z,100236.95
2019-05-23T11:18:10.441Z,100236.95
2019-05-23T11:20:38.864Z,100232.15
2019-05-23T11:23:06.868Z,100232.15
2019-05-23T11:25:37.912Z,100242.27
2019-05-23T11:28:05.848Z,100235.81
2019-05-23T11:30:43.372Z,100217.70
2019-05-23T11:33:13.136Z,100217.70
2019-05-23T11:35:41.443Z,100233.66
2019-05-23T11:38:09.533Z,100229.36
2019-05-23T11:40:37.695Z,100229.36
2019-05-23T11:43:05.499Z,100221.09
2019-05-23T11:45:45.646Z,100226.87
2019-05-23T11:48:07.673Z,100226.87
2019-05-23T11:50:36.810Z,100223.61
2019-05-23T11:53:05.772Z,100224.76
2019-05-23T11:55:33.674Z,100224.76
2019-05-23T11:58:01.453Z,100234.41
2019-05-23T12:01:10.099Z,100235.06
2019-05-23T12:03:38.285Z,100230.27
2019-05-23T12:06:06.463Z,100227.61
2019-05-23T12:08:34.580Z,100226.77
2019-05-23T12:11:02.813Z,100228.09
2019-05-23T12:13:31.566Z,100229.11
2019-05-23T12:16:00.370Z,100229.11
2019-05-23T12:18:28.564Z,100226.45
2019-05-23T12:20:59.567Z,100230.78
2019-05-23T12:23:26.623Z,100231.98
2019-05-23T12:25:54.512Z,100227.98
2019-05-23T12:28:23.303Z,100216.69
2019-05-23T12:30:51.123Z,100214.36
2019-05-23T12:33:19.130Z,100216.16
2019-05-23T12:35:46.952Z,100216.16
2019-05-23T12:38:15.453Z,100218.16
2019-05-23T12:40:43.341Z,100214.83
2019-05-23T12:43:13.962Z,100214.83
2019-05-23T12:45:42.339Z,100218.50
2019-05-23T12:48:20.729Z,100218.02
2019-05-23T12:50:54.540Z,100212.38
2019-05-23T12:53:23.048Z,100199.73
2019-05-23T12:55:50.790Z,100211.84
2019-05-23T12:58:19.294Z,100212.51
2019-05-23T13:00:51.947Z,100211.17
2019-05-23T13:03:19.946Z,100211.19
2019-05-23T13:05:47.893Z,100211.70
2019-05-23T13:08:16.532Z,100213.03
2019-05-23T13:10:44.493Z,100213.52
2019-05-23T13:13:12.711Z,100213.52
2019-05-23T13:15:40.714Z,100223.83
2019-05-23T13:18:08.881Z,100216.37
2019-05-23T13:20:37.806Z,100216.37
2019-05-23T13:23:05.945Z,100213.54
2019-05-23T13:25:33.938Z,100217.72
2019-05-23T13:28:01.887Z,100214.06
2019-05-23T13:30:30.472Z,100214.06
2019-05-23T13:33:03.538Z,100214.89
2019-05-23T13:35:30.713Z,100217.88
2019-05-23T13:37:58.594Z,100215.25
2019-05-23T13:40:26.391Z,100222.91
2019-05-23T13:42:54.238Z,100214.59
2019-05-23T13:45:22.340Z,100218.91
2019-05-23T13:47:50.710Z,100219.05
2019-05-23T13:50:19.166Z,100216.05
2019-05-23T13:52:47.935Z,100207.72
2019-05-23T13:55:16.167Z,100208.91
2019-05-23T13:57:43.890Z,100209.88
2019-05-23T14:00:14.499Z,100211.86
2019-05-23T14:02:42.608Z,100202.34
2019-05-23T14:05:11.408Z,100207.96
2019-05-23T14:07:39.379Z,100203.26
2019-05-23T14:10:08.946Z,100203.64
2019-05-23T14:12:36.841Z,100201.57
2019-05-23T14:15:04.971Z,100199.02
2019-05-23T14:17:36.652Z,100205.14
2019-05-23T14:20:04.883Z,100201.69
2019-05-23T14:22:39.323Z,100205.36
2019-05-23T14:25:07.611Z,100202.70
2019-05-23T14:28:06.954Z,100202.70
2019-05-23T14:30:56.872Z,100202.83
2019-05-23T14:33:35.494Z,100202.83
2019-05-23T14:36:07.780Z,100207.38
2019-05-23T14:38:35.637Z,100204.19
2019-05-23T14:41:04.850Z,100202.17
2019-05-23T14:43:32.919Z,100196.21
2019-05-23T14:46:12.034Z,100196.21
2019-05-23T14:49:07.751Z,100202.53
2019-05-23T14:52:01.148Z,100201.73
2019-05-23T14:54:47.604Z,100201.22
2019-05-23T14:57:15.629Z,100205.73
2019-05-23T14:59:43.660Z,100206.41
2019-05-23T15:02:18.560Z,100196.27
2019-05-23T15:04:47.681Z,100197.92
2019-05-23T15:07:15.768Z,100199.07
2019-05-23T15:09:43.692Z,100198.83
2019-05-23T15:12:11.531Z,100186.50
2019-05-23T15:14:39.326Z,100186.50
2019-05-23T15:17:07.424Z,100199.44
2019-05-23T15:19:44.299Z,100198.95
2019-05-23T15:22:06.275Z,100195.77
2019-05-23T15:24:34.187Z,100197.07
2019-05-23T15:27:02.173Z,100195.38
2019-05-23T15:29:29.857Z,100184.36
2019-05-23T15:32:02.108Z,100181.66
2019-05-23T15:34:27.557Z,100189.63
2019-05-23T15:36:55.441Z,100178.27
2019-05-23T15:39:23.470Z,100182.77
2019-05-23T15:41:51.556Z,100176.61
2019-05-23T15:44:27.358Z,100184.26
2019-05-23T15:46:49.793Z,100182.27
2019-05-23T15:49:17.699Z,100178.11
2019-05-23T15:52:05.784Z,100187.94
2019-05-23T15:54:43.029Z,100184.29
2019-05-23T15:57:37.456Z,100179.34
2019-05-23T16:00:25.044Z,100187.38
2019-05-23T16:03:03.823Z,100188.06
2019-05-23T16:05:32.540Z,100185.59
2019-05-23T16:08:00.720Z,100186.23
2019-05-23T16:10:29.442Z,100186.43
2019-05-23T16:12:57.580Z,100189.94
2019-05-23T16:15:25.474Z,100186.15
2019-05-23T16:17:53.477Z,100190.34
2019-05-23T16:20:21.416Z,100180.06
2019-05-23T16:22:49.192Z,100194.17
2019-05-23T16:25:18.324Z,100187.53
2019-05-23T16:27:46.321Z,100196.56
2019-05-23T16:30:14.711Z,100189.95
2019-05-23T16:32:46.403Z,100194.95
2019-05-23T16:35:12.986Z,100194.95
2019-05-23T16:37:40.710Z,100196.94
2019-05-23T16:40:09.062Z,100198.27
2019-05-23T16:42:39.372Z,100193.95
2019-05-23T16:45:07.684Z,100197.45
2019-05-23T16:47:36.258Z,100189.46
2019-05-23T16:50:05.162Z,100185.59
2019-05-23T16:52:33.808Z,100179.31
2019-05-23T16:55:03.463Z,100173.95
2019-05-23T16:57:38.829Z,100183.98
2019-05-23T17:00:31.820Z,100183.98
2019-05-23T17:03:16.293Z,100185.99
2019-05-23T17:06:02.355Z,100180.98
2019-05-23T17:08:38.410Z,100186.30
2019-05-23T17:11:24.514Z,100186.30
2019-05-23T17:14:02.986Z,100193.29
2019-05-23T17:16:43.354Z,100187.61
2019-05-23T17:19:33.930Z,100190.63
2019-05-23T17:22:07.411Z,100190.48
2019-05-23T17:24:53.306Z,100192.52
2019-05-23T17:27:39.129Z,100192.52
2019-05-23T17:30:35.731Z,100183.84
2019-05-23T17:33:06.599Z,100196.63
2019-05-23T17:35:35.086Z,100198.48
2019-05-23T17:38:03.131Z,100198.97
2019-05-23T17:40:32.057Z,100192.83
2019-05-23T17:43:00.233Z,100191.98
2019-05-23T17:45:29.131Z,100201.16
2019-05-23T17:47:58.232Z,100200.83
2019-05-23T17:50:26.801Z,100199.98
2019-05-23T17:52:54.848Z,100200.33
2019-05-23T17:55:22.738Z,100206.68
2019-05-23T17:57:50.591Z,100212.34
2019-05-23T18:00:21.776Z,100208.53
2019-05-23T18:02:49.910Z,100213.82
2019-05-23T18:05:18.179Z,100214.31
2019-05-23T18:07:46.049Z,100221.62
2019-05-23T18:10:14.436Z,100213.95
2019-05-23T18:12:42.209Z,100212.63
2019-05-23T18:15:13.040Z,100209.15
2019-05-23T18:17:41.319Z,100226.14
2019-05-23T18:20:09.519Z,100226.14
2019-05-23T18:22:38.085Z,100220.48
2019-05-23T18:25:08.622Z,100212.84
2019-05-23T18:27:37.322Z,100217.32
2019-05-23T18:30:07.319Z,100209.52
2019-05-23T18:32:35.246Z,100221.03
2019-05-23T18:35:03.822Z,100221.03
2019-05-23T18:37:31.821Z,100221.73
2019-05-23T18:39:59.578Z,100218.74
2019-05-23T18:42:27.488Z,100222.41
2019-05-23T18:44:56.178Z,100223.59
2019-05-23T18:47:32.634Z,100222.77
2019-05-23T18:50:01.103Z,100225.09
2019-05-23T18:52:29.458Z,100225.45
2019-05-23T18:54:57.202Z,100223.78
2019-05-23T18:57:25.823Z,100221.81
2019-05-23T18:59:53.595Z,100222.47
2019-05-23T19:02:22.552Z,100219.80
2019-05-23T19:04:51.964Z,100217.66
2019-05-23T19:07:20.302Z,100227.14
2019-05-23T19:09:48.124Z,100227.14
2019-05-23T19:12:16.640Z,100226.48
2019-05-23T19:14:44.459Z,100222.31
2019-05-23T19:17:12.321Z,100222.31
2019-05-23T19:19:40.331Z,100234.13
2019-05-23T19:22:08.306Z,100221.30
2019-05-23T19:24:37.020Z,100235.97
2019-05-23T19:27:13.999Z,100225.14
2019-05-23T19:29:41.472Z,100234.13
2019-05-23T19:32:10.421Z,100230.13
2019-05-23T19:34:38.433Z,100227.63
2019-05-23T19:37:08.393Z,100227.14
2019-05-23T19:39:36.628Z,100218.16
2019-05-23T19:42:06.238Z,100207.50
2019-05-23T19:44:34.266Z,100207.50
2019-05-23T19:47:02.181Z,100220.48
2019-05-23T19:49:29.943Z,100216.16
2019-05-23T19:51:58.099Z,100214.49
2019-05-23T19:54:26.201Z,100218.64
2019-05-23T19:56:54.112Z,100219.48
2019-05-23T19:59:22.034Z,100217.52
2019-05-23T20:02:07.889Z,100220.50
2019-05-23T20:04:38.993Z,100214.84
2019-05-23T20:07:07.528Z,100206.20
2019-05-23T20:09:36.146Z,100210.53
2019-05-23T20:12:03.989Z,100205.88
2019-05-23T20:14:31.922Z,100210.20
2019-05-23T20:16:59.702Z,100214.53
2019-05-23T20:19:27.792Z,100216.67
2019-05-23T20:21:55.544Z,100221.19
2019-05-23T20:24:23.866Z,100219.52
2019-05-23T20:26:52.304Z,100221.52
2019-05-23T20:29:20.239Z,100226.33
2019-05-23T20:31:48.707Z,100230.16
2019-05-23T20:34:16.727Z,100228.50
2019-05-23T20:36:44.671Z,100228.50
2019-05-23T20:39:12.474Z,100221.66
2019-05-23T20:41:40.237Z,100224.33
2019-05-23T20:44:08.254Z,100231.19
2019-05-23T20:46:36.057Z,100227.86
2019-05-23T20:49:03.936Z,100232.84
2019-05-23T20:51:31.971Z,100235.19
2019-05-23T20:53:59.733Z,100233.53
2019-05-23T20:56:27.452Z,100232.86
2019-05-23T20:58:55.643Z,100231.53
2019-05-23T21:01:26.437Z,100230.19
2019-05-23T21:03:55.338Z,100223.20
2019-05-23T21:06:23.677Z,100225.86
2019-05-23T21:08:51.543Z,100225.86
2019-05-23T21:11:19.500Z,100231.20
2019-05-23T21:13:47.418Z,100230.52
2019-05-23T21:16:15.337Z,100233.53
2019-05-23T21:18:43.208Z,100234.53
2019-05-23T21:21:11.290Z,100233.19
2019-05-23T21:23:39.042Z,100231.53
2019-05-23T21:26:07.165Z,100236.19
2019-05-23T21:28:36.092Z,100238.84
2019-05-23T21:31:07.494Z,100237.53
2019-05-23T21:33:35.440Z,100239.01
2019-05-23T21:36:03.323Z,100235.34
2019-05-23T21:38:31.297Z,100234.02
2019-05-23T21:41:03.170Z,100239.02
2019-05-23T21:43:29.718Z,100236.20
2019-05-23T21:45:57.547Z,100230.55
2019-05-23T21:48:25.417Z,100228.70
2019-05-23T21:50:53.149Z,100228.70
2019-05-23T21:53:21.135Z,100238.34
2019-05-23T21:55:48.819Z,100234.36
2019-05-23T21:58:16.805Z,100237.53
2019-05-23T22:01:28.894Z,100236.02
2019-05-23T22:04:32.100Z,100232.84
2019-05-23T22:07:05.279Z,100232.84
2019-05-23T22:09:33.598Z,100232.52
2019-05-23T22:12:02.375Z,100225.23
2019-05-23T22:14:30.454Z,100229.22
2019-05-23T22:16:58.399Z,100227.19
2019-05-23T22:19:26.685Z,100226.20
2019-05-23T22:21:54.559Z,100231.03
2019-05-23T22:24:22.648Z,100231.03
2019-05-23T22:26:51.278Z,100232.17
2019-05-23T22:29:19.685Z,100228.18
2019-05-23T22:31:47.630Z,100227.36
2019-05-23T22:34:34.269Z,100225.70
2019-05-23T22:37:06.453Z,100210.22
2019-05-23T22:39:34.419Z,100218.86
2019-05-23T22:42:05.528Z,100215.39
2019-05-23T22:44:33.882Z,100221.70
2019-05-23T22:47:01.792Z,100218.52
2019-05-23T22:49:29.496Z,100208.22
2019-05-23T22:51:57.266Z,100215.04
2019-05-23T22:54:24.991Z,100210.53
2019-05-23T22:56:52.790Z,100211.53
2019-05-23T22:59:20.475Z,100202.55
2019-05-23T23:01:48.446Z,100197.23
2019-05-23T23:04:16.191Z,100203.20
2019-05-23T23:06:43.936Z,100194.07
2019-05-23T23:09:12.595Z,100193.23
2019-05-23T23:11:40.476Z,100194.40
2019-05-23T23:14:08.309Z,100199.19
2019-05-23T23:16:36.113Z,100201.18
2019-05-23T23:19:04.335Z,100200.69
2019-05-23T23:21:32.623Z,100203.16
2019-05-23T23:24:00.403Z,100210.42
2019-05-23T23:26:28.131Z,100202.62
2019-05-23T23:28:56.100Z,100208.73
2019-05-23T23:31:24.781Z,100212.03
2019-05-23T23:33:52.823Z,100212.83
2019-05-23T23:36:20.594Z,100220.97
2019-05-23T23:38:48.289Z,100210.13
2019-05-23T23:41:16.096Z,100210.80
2019-05-23T23:43:58.632Z,100212.78
2019-05-23T23:46:33.543Z,100220.59
2019-05-23T23:49:19.575Z,100217.92
2019-05-23T23:52:05.268Z,100211.92
2019-05-23T23:54:51.038Z,100208.39
2019-05-23T23:57:38.080Z,100206.23
